createdAt,value
2019-02-10T00:00:10.817Z,34.65
2019-02-10T00:01:10.714Z,34.65
2019-02-10T00:02:10.665Z,34.65
2019-02-10T00:03:10.615Z,34.55
2019-02-10T00:04:10.564Z,34.55
2019-02-10T00:05:10.516Z,34.45
2019-02-10T00:06:10.469Z,34.55
2019-02-10T00:07:10.418Z,34.45
2019-02-10T00:08:10.371Z,34.55
2019-02-10T00:09:10.317Z,34.55
2019-02-10T00:10:10.267Z,34.45
2019-02-10T00:11:10.218Z,34.45
2019-02-10T00:12:10.169Z,34.45
2019-02-10T00:13:10.119Z,34.65
2019-02-10T00:14:10.069Z,34.65
2019-02-10T00:15:10.024Z,34.55
2019-02-10T00:16:09.970Z,34.55
2019-02-10T00:17:09.920Z,34.55
2019-02-10T00:18:09.871Z,34.55
2019-02-10T00:19:09.821Z,34.45
2019-02-10T00:20:09.771Z,34.65
2019-02-10T00:21:09.721Z,34.55
2019-02-10T00:22:09.673Z,34.45
2019-02-10T00:23:09.622Z,34.65
2019-02-10T00:24:09.572Z,34.45
2019-02-10T00:25:09.525Z,34.55
2019-02-10T00:26:09.474Z,34.45
2019-02-10T00:27:09.424Z,34.65
2019-02-10T00:28:09.374Z,34.55
2019-02-10T00:29:09.324Z,34.45
2019-02-10T00:30:09.275Z,34.65
2019-02-10T00:31:09.226Z,34.45
2019-02-10T00:32:09.175Z,34.65
2019-02-10T00:33:09.127Z,34.65
2019-02-10T00:34:09.076Z,34.65
2019-02-10T00:35:09.028Z,34.55
2019-02-10T00:36:08.975Z,34.55
2019-02-10T00:37:08.977Z,34.45
2019-02-10T00:38:08.878Z,34.45
2019-02-10T00:39:08.827Z,34.45
2019-02-10T00:40:08.778Z,34.55
2019-02-10T00:41:08.732Z,34.45
2019-02-10T00:42:08.679Z,34.45
2019-02-10T00:43:08.628Z,34.55
2019-02-10T00:44:08.582Z,34.55
2019-02-10T00:45:08.529Z,34.45
2019-02-10T00:46:08.480Z,34.65
2019-02-10T00:47:08.431Z,34.36
2019-02-10T00:48:08.381Z,34.55
2019-02-10T00:49:08.331Z,34.45
2019-02-10T00:50:08.281Z,34.55
2019-02-10T00:51:08.232Z,34.55
2019-02-10T00:52:08.181Z,34.45
2019-02-10T00:53:08.133Z,34.36
2019-02-10T00:54:08.082Z,34.45
2019-02-10T00:55:08.036Z,34.36
2019-02-10T00:56:07.985Z,34.45
2019-02-10T00:57:07.983Z,34.55
2019-02-10T00:58:07.894Z,34.45
2019-02-10T00:59:07.834Z,34.55
2019-02-10T01:00:07.784Z,34.45
2019-02-10T01:01:07.734Z,34.36
2019-02-10T01:02:07.685Z,34.45
2019-02-10T01:03:07.636Z,34.45
2019-02-10T01:04:07.585Z,34.45
2019-02-10T01:05:07.536Z,34.45
2019-02-10T01:06:07.485Z,34.55
2019-02-10T01:07:07.437Z,34.55
2019-02-10T01:08:07.386Z,34.65
2019-02-10T01:09:07.337Z,34.55
2019-02-10T01:10:07.287Z,34.55
2019-02-10T01:11:07.238Z,34.55
2019-02-10T01:12:07.188Z,34.45
2019-02-10T01:13:07.138Z,34.36
2019-02-10T01:14:07.089Z,34.36
2019-02-10T01:15:07.039Z,34.36
2019-02-10T01:16:07.089Z,34.45
2019-02-10T01:17:07.089Z,34.55
2019-02-10T01:18:06.896Z,34.65
2019-02-10T01:19:06.842Z,34.45
2019-02-10T01:20:06.792Z,34.45
2019-02-10T01:21:06.743Z,34.65
2019-02-10T01:22:06.690Z,34.65
2019-02-10T01:23:06.642Z,34.45
2019-02-10T01:24:06.591Z,34.45
2019-02-10T01:25:06.542Z,34.65
2019-02-10T01:26:06.498Z,34.55
2019-02-10T01:27:06.443Z,34.55
2019-02-10T01:28:06.392Z,34.65
2019-02-10T01:29:06.343Z,34.55
2019-02-10T01:30:06.293Z,34.65
2019-02-10T01:31:06.244Z,34.65
2019-02-10T01:32:06.193Z,34.45
2019-02-10T01:33:06.143Z,34.55
2019-02-10T01:34:06.100Z,34.45
2019-02-10T01:35:06.045Z,34.55
2019-02-10T01:36:05.995Z,34.55
2019-02-10T01:37:05.995Z,34.65
2019-02-10T01:38:05.896Z,34.65
2019-02-10T01:39:05.848Z,34.65
2019-02-10T01:40:06.113Z,34.45
2019-02-10T01:41:05.746Z,34.55
2019-02-10T01:42:05.697Z,34.65
2019-02-10T01:43:05.646Z,34.65
2019-02-10T01:44:05.604Z,34.55
2019-02-10T01:45:05.548Z,34.45
2019-02-10T01:46:05.498Z,34.65
2019-02-10T01:47:05.448Z,34.45
2019-02-10T01:48:05.398Z,34.65
2019-02-10T01:49:05.350Z,34.65
2019-02-10T01:50:05.299Z,34.55
2019-02-10T01:51:05.250Z,34.65
2019-02-10T01:52:05.199Z,34.55
2019-02-10T01:53:05.149Z,34.45
2019-02-10T01:54:05.107Z,34.65
2019-02-10T01:55:05.050Z,34.65
2019-02-10T01:56:05.004Z,34.65
2019-02-10T01:57:04.958Z,34.65
2019-02-10T01:58:04.969Z,34.55
2019-02-10T01:59:04.852Z,34.45
2019-02-10T02:00:04.802Z,34.65
2019-02-10T02:01:04.751Z,34.55
2019-02-10T02:02:04.701Z,34.45
2019-02-10T02:03:04.653Z,34.65
2019-02-10T02:04:04.602Z,34.45
2019-02-10T02:05:04.552Z,34.65
2019-02-10T02:06:04.503Z,34.55
2019-02-10T02:07:04.453Z,34.45
2019-02-10T02:08:04.445Z,34.65
2019-02-10T02:09:04.355Z,34.55
2019-02-10T02:10:04.304Z,34.45
2019-02-10T02:11:04.255Z,34.45
2019-02-10T02:12:04.205Z,34.65
2019-02-10T02:13:04.158Z,34.45
2019-02-10T02:14:04.107Z,34.45
2019-02-10T02:15:04.061Z,34.65
2019-02-10T02:16:04.006Z,34.55
2019-02-10T02:17:03.956Z,34.55
2019-02-10T02:18:03.907Z,34.65
2019-02-10T02:19:03.860Z,34.65
2019-02-10T02:20:03.807Z,34.75
2019-02-10T02:21:03.763Z,34.75
2019-02-10T02:22:03.708Z,34.65
2019-02-10T02:23:03.658Z,34.55
2019-02-10T02:24:03.608Z,34.65
2019-02-10T02:25:03.558Z,34.65
2019-02-10T02:26:03.508Z,34.65
2019-02-10T02:27:03.458Z,34.45
2019-02-10T02:28:03.408Z,34.75
2019-02-10T02:29:03.359Z,34.75
2019-02-10T02:30:03.311Z,34.65
2019-02-10T02:31:03.260Z,34.45
2019-02-10T02:32:03.210Z,34.65
2019-02-10T02:33:03.160Z,34.65
2019-02-10T02:34:03.111Z,34.75
2019-02-10T02:35:03.061Z,34.55
2019-02-10T02:36:03.010Z,34.65
2019-02-10T02:37:07.912Z,34.84
2019-02-10T02:38:03.011Z,34.65
2019-02-10T02:39:02.864Z,34.45
2019-02-10T02:40:02.822Z,34.75
2019-02-10T02:41:02.762Z,34.65
2019-02-10T02:42:02.714Z,34.65
2019-02-10T02:43:02.669Z,34.65
2019-02-10T02:44:02.611Z,34.65
2019-02-10T02:45:02.563Z,34.65
2019-02-10T02:46:02.512Z,34.65
2019-02-10T02:47:02.464Z,34.65
2019-02-10T02:48:02.420Z,34.65
2019-02-10T02:49:02.365Z,34.75
2019-02-10T02:50:02.314Z,34.65
2019-02-10T02:51:02.270Z,34.75
2019-02-10T02:52:02.215Z,34.75
2019-02-10T02:53:02.167Z,34.75
2019-02-10T02:54:02.127Z,34.55
2019-02-10T02:55:02.095Z,34.75
2019-02-10T02:56:02.020Z,34.75
2019-02-10T02:57:02.016Z,34.65
2019-02-10T02:58:01.965Z,34.84
2019-02-10T02:59:01.866Z,34.65
2019-02-10T03:00:01.823Z,34.75
2019-02-10T03:01:01.766Z,34.75
2019-02-10T03:02:01.717Z,34.75
2019-02-10T03:03:01.669Z,34.75
2019-02-10T03:04:01.619Z,34.75
2019-02-10T03:05:01.571Z,34.65
2019-02-10T03:06:01.520Z,34.65
2019-02-10T03:07:01.471Z,34.65
2019-02-10T03:08:01.417Z,34.75
2019-02-10T03:09:01.368Z,34.75
2019-02-10T03:10:01.320Z,34.55
2019-02-10T03:11:01.270Z,34.65
2019-02-10T03:12:01.233Z,34.65
2019-02-10T03:13:01.169Z,34.84
2019-02-10T03:14:01.120Z,34.75
2019-02-10T03:15:01.071Z,34.55
2019-02-10T03:16:01.019Z,34.65
2019-02-10T03:17:00.970Z,34.65
2019-02-10T03:18:00.922Z,34.75
2019-02-10T03:19:00.871Z,34.94
2019-02-10T03:20:00.826Z,34.65
2019-02-10T03:21:00.771Z,34.94
2019-02-10T03:22:00.727Z,34.84
2019-02-10T03:23:00.674Z,34.94
2019-02-10T03:24:00.634Z,34.65
2019-02-10T03:25:00.599Z,34.75
2019-02-10T03:26:00.522Z,34.55
2019-02-10T03:27:00.474Z,34.94
2019-02-10T03:28:00.422Z,34.65
2019-02-10T03:29:00.373Z,34.94
2019-02-10T03:30:00.368Z,34.65
2019-02-10T03:31:00.275Z,34.55
2019-02-10T03:32:00.229Z,34.94
2019-02-10T03:33:00.176Z,34.65
2019-02-10T03:34:00.127Z,34.65
2019-02-10T03:35:00.152Z,34.75
2019-02-10T03:36:00.023Z,34.45
2019-02-10T03:36:59.974Z,35.03
2019-02-10T03:37:59.928Z,34.65
2019-02-10T03:38:59.876Z,34.65
2019-02-10T03:39:59.825Z,34.94
2019-02-10T03:40:59.775Z,34.75
2019-02-10T03:41:59.737Z,34.75
2019-02-10T03:42:59.677Z,34.75
2019-02-10T03:43:59.633Z,34.65
2019-02-10T03:44:59.611Z,34.75
2019-02-10T03:45:59.531Z,34.65
2019-02-10T03:46:59.475Z,34.65
2019-02-10T03:47:59.426Z,34.94
2019-02-10T03:48:59.376Z,34.75
2019-02-10T03:49:59.329Z,34.75
2019-02-10T03:50:59.277Z,34.84
2019-02-10T03:51:59.229Z,34.84
2019-02-10T03:52:59.223Z,34.94
2019-02-10T03:53:59.129Z,34.94
2019-02-10T03:54:59.079Z,34.94
2019-02-10T03:55:59.028Z,34.94
2019-02-10T03:56:58.979Z,34.75
2019-02-10T03:57:58.929Z,34.65
2019-02-10T03:58:58.880Z,34.73
2019-02-10T03:59:58.829Z,34.94
2019-02-10T04:00:58.779Z,34.94
2019-02-10T04:01:58.729Z,34.94
2019-02-10T04:02:58.681Z,35.03
2019-02-10T04:03:58.628Z,34.84
2019-02-10T04:04:58.584Z,34.82
2019-02-10T04:05:58.529Z,34.55
2019-02-10T04:06:58.480Z,34.84
2019-02-10T04:07:58.429Z,34.84
2019-02-10T04:08:58.380Z,34.84
2019-02-10T04:09:58.330Z,34.82
2019-02-10T04:10:58.286Z,35.03
2019-02-10T04:11:58.234Z,35.11
2019-02-10T04:12:58.181Z,34.75
2019-02-10T04:13:58.131Z,34.73
2019-02-10T04:14:58.087Z,34.75
2019-02-10T04:15:58.030Z,34.82
2019-02-10T04:16:57.982Z,34.84
2019-02-10T04:17:57.981Z,34.75
2019-02-10T04:18:57.882Z,34.75
2019-02-10T04:19:57.831Z,34.84
2019-02-10T04:20:57.788Z,34.94
2019-02-10T04:21:57.734Z,34.82
2019-02-10T04:22:57.683Z,34.53
2019-02-10T04:23:57.632Z,34.94
2019-02-10T04:24:57.584Z,35.02
2019-02-10T04:25:57.534Z,35.03
2019-02-10T04:26:57.484Z,34.73
2019-02-10T04:27:57.433Z,34.94
2019-02-10T04:28:57.391Z,34.94
2019-02-10T04:29:57.334Z,34.92
2019-02-10T04:30:57.285Z,35.11
2019-02-10T04:31:57.238Z,34.75
2019-02-10T04:32:57.187Z,34.84
2019-02-10T04:33:57.134Z,34.92
2019-02-10T04:34:57.088Z,35.03
2019-02-10T04:35:57.035Z,35.03
2019-02-10T04:36:56.986Z,35.03
2019-02-10T04:37:56.935Z,35.02
2019-02-10T04:38:56.885Z,35.13
2019-02-10T04:39:56.834Z,34.94
2019-02-10T04:40:56.785Z,34.94
2019-02-10T04:41:56.735Z,34.92
2019-02-10T04:42:56.687Z,34.94
2019-02-10T04:43:56.637Z,35.02
2019-02-10T04:44:56.586Z,35.02
2019-02-10T04:45:56.537Z,35.02
2019-02-10T04:46:56.486Z,34.92
2019-02-10T04:47:56.438Z,35.02
2019-02-10T04:48:56.387Z,34.92
2019-02-10T04:49:56.337Z,34.92
2019-02-10T04:50:56.287Z,34.84
2019-02-10T04:51:56.237Z,35.03
2019-02-10T04:52:56.187Z,35.03
2019-02-10T04:53:56.137Z,34.94
2019-02-10T04:54:56.092Z,34.84
2019-02-10T04:55:56.038Z,34.92
2019-02-10T04:56:55.989Z,34.94
2019-02-10T04:57:55.988Z,34.84
2019-02-10T04:58:55.887Z,34.82
2019-02-10T04:59:55.838Z,35.03
2019-02-10T05:00:55.788Z,34.92
2019-02-10T05:01:55.738Z,34.82
2019-02-10T05:02:55.689Z,34.92
2019-02-10T05:03:55.638Z,35.02
2019-02-10T05:04:55.588Z,35.02
2019-02-10T05:05:55.539Z,34.92
2019-02-10T05:06:55.489Z,34.92
2019-02-10T05:07:55.439Z,34.92
2019-02-10T05:08:55.389Z,34.92
2019-02-10T05:09:55.339Z,35.02
2019-02-10T05:10:55.295Z,34.92
2019-02-10T05:11:55.241Z,34.92
2019-02-10T05:12:55.189Z,34.92
2019-02-10T05:13:55.142Z,34.82
2019-02-10T05:14:55.091Z,34.94
2019-02-10T05:15:55.040Z,35.02
2019-02-10T05:16:54.990Z,35.03
2019-02-10T05:17:54.990Z,35.11
2019-02-10T05:18:54.890Z,34.84
2019-02-10T05:19:54.840Z,34.92
2019-02-10T05:20:54.793Z,35.03
2019-02-10T05:21:54.741Z,34.92
2019-02-10T05:22:54.692Z,34.82
2019-02-10T05:24:02.750Z,34.92
2019-02-10T05:24:54.594Z,35.02
2019-02-10T05:25:54.543Z,34.94
2019-02-10T05:26:54.492Z,34.92
2019-02-10T05:27:54.441Z,34.92
2019-02-10T05:28:54.392Z,34.82
2019-02-10T05:29:54.342Z,34.92
2019-02-10T05:30:54.300Z,34.92
2019-02-10T05:31:54.242Z,34.82
2019-02-10T05:32:54.192Z,34.92
2019-02-10T05:33:54.142Z,34.82
2019-02-10T05:34:54.101Z,34.82
2019-02-10T05:35:54.044Z,34.92
2019-02-10T05:36:53.993Z,34.92
2019-02-10T05:37:53.943Z,34.92
2019-02-10T05:38:53.895Z,34.92
2019-02-10T05:39:53.844Z,34.84
2019-02-10T05:40:53.793Z,34.73
2019-02-10T05:41:53.747Z,34.82
2019-02-10T05:42:53.694Z,34.82
2019-02-10T05:43:53.644Z,34.92
2019-02-10T05:44:53.594Z,34.92
2019-02-10T05:45:53.543Z,34.82
2019-02-10T05:46:53.495Z,34.82
2019-02-10T05:47:53.444Z,34.82
2019-02-10T05:48:53.393Z,34.73
2019-02-10T05:49:53.346Z,34.82
2019-02-10T05:50:53.300Z,34.92
2019-02-10T05:51:53.244Z,34.82
2019-02-10T05:52:53.195Z,34.73
2019-02-10T05:53:53.147Z,34.92
2019-02-10T05:54:53.096Z,34.82
2019-02-10T05:55:53.044Z,34.82
2019-02-10T05:56:53.045Z,34.92
2019-02-10T05:57:52.996Z,34.73
2019-02-10T05:58:52.896Z,34.73
2019-02-10T05:59:52.845Z,34.92
2019-02-10T06:00:52.796Z,34.73
2019-02-10T06:01:52.746Z,34.92
2019-02-10T06:02:52.698Z,35.02
2019-02-10T06:03:52.650Z,34.92
2019-02-10T06:04:52.603Z,34.82
2019-02-10T06:05:52.551Z,34.92
2019-02-10T06:06:52.497Z,34.92
2019-02-10T06:07:52.446Z,34.73
2019-02-10T06:08:52.398Z,34.92
2019-02-10T06:09:52.347Z,34.73
2019-02-10T06:10:52.297Z,34.82
2019-02-10T06:11:52.247Z,34.92
2019-02-10T06:12:52.198Z,34.92
2019-02-10T06:13:52.148Z,34.92
2019-02-10T06:14:52.098Z,34.92
2019-02-10T06:15:52.047Z,34.92
2019-02-10T06:16:52.000Z,34.82
2019-02-10T06:17:51.949Z,34.92
2019-02-10T06:18:51.902Z,34.82
2019-02-10T06:19:51.848Z,34.73
2019-02-10T06:20:51.797Z,34.73
2019-02-10T06:21:51.748Z,34.82
2019-02-10T06:22:51.699Z,34.73
2019-02-10T06:23:51.649Z,34.82
2019-02-10T06:24:51.599Z,34.82
2019-02-10T06:25:51.607Z,34.92
2019-02-10T06:26:51.498Z,34.73
2019-02-10T06:27:51.452Z,34.82
2019-02-10T06:28:51.399Z,34.92
2019-02-10T06:29:51.350Z,34.82
2019-02-10T06:30:51.300Z,34.82
2019-02-10T06:31:51.257Z,34.82
2019-02-10T06:32:51.203Z,34.82
2019-02-10T06:33:51.150Z,34.82
2019-02-10T06:34:51.136Z,34.94
2019-02-10T06:35:51.050Z,34.73
2019-02-10T06:36:51.053Z,34.92
2019-02-10T06:37:50.999Z,34.92
2019-02-10T06:38:50.901Z,34.73
2019-02-10T06:39:50.851Z,34.92
2019-02-10T06:40:50.805Z,34.73
2019-02-10T06:41:50.751Z,34.84
2019-02-10T06:42:50.753Z,34.84
2019-02-10T06:43:50.651Z,34.92
2019-02-10T06:44:50.601Z,34.82
2019-02-10T06:45:50.551Z,34.92
2019-02-10T06:46:50.502Z,34.82
2019-02-10T06:47:50.450Z,34.84
2019-02-10T06:48:50.401Z,34.92
2019-02-10T06:49:50.352Z,34.73
2019-02-10T06:50:50.302Z,34.82
2019-02-10T06:51:50.252Z,34.82
2019-02-10T06:52:50.205Z,34.73
2019-02-10T06:53:50.152Z,34.92
2019-02-10T06:54:50.103Z,34.92
2019-02-10T06:55:50.052Z,34.82
2019-02-10T06:56:50.052Z,34.82
2019-02-10T06:57:49.956Z,34.63
2019-02-10T06:58:49.902Z,34.63
2019-02-10T06:59:49.853Z,34.82
2019-02-10T07:00:49.903Z,34.73
2019-02-10T07:01:50.070Z,34.92
2019-02-10T07:02:49.704Z,34.82
2019-02-10T07:03:49.653Z,34.82
2019-02-10T07:04:49.602Z,34.73
2019-02-10T07:05:49.554Z,34.82
2019-02-10T07:06:49.504Z,34.73
2019-02-10T07:07:49.454Z,34.82
2019-02-10T07:08:49.403Z,34.73
2019-02-10T07:09:49.356Z,34.82
2019-02-10T07:10:49.305Z,34.73
2019-02-10T07:11:49.254Z,34.82
2019-02-10T07:12:49.204Z,34.73
2019-02-10T07:13:49.155Z,34.84
2019-02-10T07:14:49.155Z,34.92
2019-02-10T07:15:49.056Z,34.82
2019-02-10T07:16:49.056Z,34.73
2019-02-10T07:17:49.006Z,34.82
2019-02-10T07:18:48.906Z,34.92
2019-02-10T07:19:48.856Z,34.73
2019-02-10T07:20:48.805Z,34.73
2019-02-10T07:21:48.756Z,34.82
2019-02-10T07:22:48.706Z,34.94
2019-02-10T07:23:48.656Z,34.82
2019-02-10T07:24:48.606Z,34.82
2019-02-10T07:25:48.556Z,34.82
2019-02-10T07:26:48.508Z,34.92
2019-02-10T07:27:48.456Z,34.82
2019-02-10T07:28:48.407Z,34.73
2019-02-10T07:29:48.357Z,34.73
2019-02-10T07:30:48.308Z,34.92
2019-02-10T07:31:48.258Z,34.73
2019-02-10T07:32:48.208Z,34.75
2019-02-10T07:33:48.158Z,34.73
2019-02-10T07:34:48.614Z,34.92
2019-02-10T07:35:48.058Z,34.92
2019-02-10T07:36:48.007Z,34.82
2019-02-10T07:37:48.059Z,34.92
2019-02-10T07:38:47.908Z,34.73
2019-02-10T07:39:47.857Z,34.63
2019-02-10T07:40:47.811Z,34.73
2019-02-10T07:41:47.761Z,34.73
2019-02-10T07:42:47.710Z,34.92
2019-02-10T07:43:47.659Z,34.92
2019-02-10T07:44:47.610Z,34.82
2019-02-10T07:45:47.560Z,34.92
2019-02-10T07:46:47.510Z,34.92
2019-02-10T07:47:47.460Z,34.73
2019-02-10T07:48:47.411Z,34.82
2019-02-10T07:49:47.362Z,34.82
2019-02-10T07:50:47.311Z,34.82
2019-02-10T07:51:47.261Z,34.73
2019-02-10T07:52:47.211Z,34.73
2019-02-10T07:53:47.161Z,34.82
2019-02-10T07:54:47.112Z,34.73
2019-02-10T07:55:47.061Z,34.94
2019-02-10T07:56:47.012Z,34.92
2019-02-10T07:57:47.012Z,34.73
2019-02-10T07:58:46.912Z,34.92
2019-02-10T07:59:46.864Z,34.73
2019-02-10T08:00:46.812Z,34.92
2019-02-10T08:01:46.762Z,34.73
2019-02-10T08:02:46.712Z,34.92
2019-02-10T08:03:46.663Z,34.82
2019-02-10T08:04:46.613Z,34.82
2019-02-10T08:05:46.563Z,34.63
2019-02-10T08:06:46.516Z,34.82
2019-02-10T08:07:46.462Z,34.82
2019-02-10T08:08:46.876Z,34.73
2019-02-10T08:09:46.364Z,34.82
2019-02-10T08:10:46.315Z,34.82
2019-02-10T08:11:46.264Z,34.73
2019-02-10T08:12:46.214Z,34.84
2019-02-10T08:13:46.165Z,34.82
2019-02-10T08:14:46.114Z,34.82
2019-02-10T08:15:46.065Z,34.94
2019-02-10T08:16:46.017Z,34.92
2019-02-10T08:17:46.015Z,34.73
2019-02-10T08:18:46.016Z,34.92
2019-02-10T08:19:45.875Z,34.92
2019-02-10T08:20:45.816Z,34.73
2019-02-10T08:21:45.765Z,34.82
2019-02-10T08:22:45.716Z,34.73
2019-02-10T08:23:45.666Z,34.73
2019-02-10T08:24:45.619Z,34.73
2019-02-10T08:25:45.567Z,34.82
2019-02-10T08:26:45.518Z,34.63
2019-02-10T08:27:45.470Z,34.82
2019-02-10T08:28:45.417Z,34.92
2019-02-10T08:29:45.367Z,34.82
2019-02-10T08:30:45.318Z,34.82
2019-02-10T08:31:45.268Z,34.82
2019-02-10T08:32:45.218Z,34.82
2019-02-10T08:33:45.168Z,34.82
2019-02-10T08:34:45.119Z,34.73
2019-02-10T08:35:45.118Z,34.73
2019-02-10T08:36:45.018Z,34.82
2019-02-10T08:37:45.019Z,34.82
2019-02-10T08:38:45.021Z,34.63
2019-02-10T08:39:44.869Z,34.73
2019-02-10T08:40:44.823Z,34.92
2019-02-10T08:41:44.770Z,34.73
2019-02-10T08:42:44.721Z,34.73
2019-02-10T08:43:44.670Z,34.73
2019-02-10T08:44:44.620Z,34.73
2019-02-10T08:45:44.571Z,34.73
2019-02-10T08:46:44.520Z,34.82
2019-02-10T08:47:44.471Z,34.73
2019-02-10T08:48:44.422Z,34.82
2019-02-10T08:49:44.371Z,34.73
2019-02-10T08:50:44.323Z,34.73
2019-02-10T08:51:44.272Z,34.53
2019-02-10T08:52:51.581Z,34.82
2019-02-10T08:53:44.172Z,34.92
2019-02-10T08:54:44.123Z,34.73
2019-02-10T08:55:44.122Z,34.63
2019-02-10T08:56:44.142Z,34.82
2019-02-10T08:57:44.023Z,34.63
2019-02-10T08:58:43.923Z,34.63
2019-02-10T08:59:43.872Z,34.63
2019-02-10T09:00:43.825Z,34.63
2019-02-10T09:01:43.773Z,35.02
2019-02-10T09:02:43.725Z,34.73
2019-02-10T09:03:43.675Z,35.13
2019-02-10T09:04:43.631Z,35.11
2019-02-10T09:05:43.581Z,35.02
2019-02-10T09:06:43.526Z,35.03
2019-02-10T09:07:43.475Z,35.11
2019-02-10T09:08:43.425Z,35.11
2019-02-10T09:09:43.377Z,35.02
2019-02-10T09:10:43.328Z,35.11
2019-02-10T09:11:43.276Z,35.11
2019-02-10T09:12:43.234Z,35.30
2019-02-10T09:13:43.178Z,35.21
2019-02-10T09:14:43.128Z,35.49
2019-02-10T09:15:43.077Z,35.40
2019-02-10T09:16:43.028Z,35.30
2019-02-10T09:17:42.978Z,35.49
2019-02-10T09:18:42.935Z,35.40
2019-02-10T09:19:42.878Z,35.40
2019-02-10T09:20:42.827Z,35.30
2019-02-10T09:21:42.778Z,35.49
2019-02-10T09:22:42.728Z,35.49
2019-02-10T09:23:42.678Z,35.59
2019-02-10T09:24:42.630Z,35.59
2019-02-10T09:25:42.579Z,35.49
2019-02-10T09:26:42.530Z,35.49
2019-02-10T09:27:42.478Z,35.59
2019-02-10T09:28:42.429Z,35.49
2019-02-10T09:29:42.380Z,35.59
2019-02-10T09:30:42.331Z,35.40
2019-02-10T09:31:42.279Z,35.59
2019-02-10T09:32:42.233Z,35.59
2019-02-10T09:33:42.180Z,35.69
2019-02-10T09:34:42.131Z,35.59
2019-02-10T09:35:42.080Z,35.69
2019-02-10T09:36:42.030Z,35.78
2019-02-10T09:37:41.981Z,35.49
2019-02-10T09:38:41.982Z,35.69
2019-02-10T09:39:41.883Z,35.69
2019-02-10T09:40:41.838Z,35.69
2019-02-10T09:41:41.782Z,35.59
2019-02-10T09:42:41.735Z,35.69
2019-02-10T09:43:41.682Z,35.59
2019-02-10T09:44:41.632Z,35.78
2019-02-10T09:45:41.584Z,35.69
2019-02-10T09:46:41.533Z,35.59
2019-02-10T09:47:41.481Z,35.88
2019-02-10T09:48:41.433Z,35.78
2019-02-10T09:49:41.384Z,35.88
2019-02-10T09:50:41.334Z,35.59
2019-02-10T09:51:41.283Z,35.69
2019-02-10T09:52:41.235Z,35.59
2019-02-10T09:53:41.186Z,35.97
2019-02-10T09:54:41.135Z,35.59
2019-02-10T09:55:41.088Z,35.59
2019-02-10T09:56:41.034Z,35.69
2019-02-10T09:57:40.986Z,35.88
2019-02-10T09:58:40.936Z,35.69
2019-02-10T09:59:40.885Z,35.78
2019-02-10T10:00:40.835Z,35.97
2019-02-10T10:01:40.786Z,35.59
2019-02-10T10:02:40.735Z,35.88
2019-02-10T10:03:40.687Z,35.69
2019-02-10T10:04:40.636Z,35.78
2019-02-10T10:05:40.586Z,35.78
2019-02-10T10:06:40.537Z,35.78
2019-02-10T10:07:40.486Z,35.69
2019-02-10T10:08:40.437Z,35.69
2019-02-10T10:09:40.386Z,36.07
2019-02-10T10:10:40.356Z,35.97
2019-02-10T10:11:40.287Z,35.97
2019-02-10T10:12:40.249Z,35.69
2019-02-10T10:13:40.188Z,35.88
2019-02-10T10:14:40.139Z,35.88
2019-02-10T10:15:40.088Z,35.88
2019-02-10T10:16:40.039Z,35.69
2019-02-10T10:17:39.989Z,35.69
2019-02-10T10:18:39.990Z,35.88
2019-02-10T10:19:39.891Z,36.07
2019-02-10T10:20:39.838Z,35.97
2019-02-10T10:21:39.790Z,35.69
2019-02-10T10:22:39.742Z,36.07
2019-02-10T10:23:39.690Z,35.88
2019-02-10T10:24:39.639Z,35.78
2019-02-10T10:25:39.591Z,35.78
2019-02-10T10:26:39.541Z,35.97
2019-02-10T10:27:39.490Z,35.97
2019-02-10T10:28:39.441Z,35.88
2019-02-10T10:29:39.391Z,35.78
2019-02-10T10:30:39.341Z,35.78
2019-02-10T10:31:39.291Z,35.78
2019-02-10T10:32:39.241Z,35.88
2019-02-10T10:33:39.192Z,35.88
2019-02-10T10:34:39.142Z,35.97
2019-02-10T10:35:39.094Z,36.16
2019-02-10T10:36:39.042Z,36.16
2019-02-10T10:37:38.993Z,35.88
2019-02-10T10:38:38.943Z,36.16
2019-02-10T10:39:38.891Z,36.07
2019-02-10T10:40:38.843Z,36.16
2019-02-10T10:41:38.793Z,35.97
2019-02-10T10:42:38.743Z,36.26
2019-02-10T10:43:38.705Z,36.26
2019-02-10T10:44:38.643Z,36.16
2019-02-10T10:45:38.594Z,36.16
2019-02-10T10:46:38.544Z,36.26
2019-02-10T10:47:38.495Z,36.26
2019-02-10T10:48:38.444Z,36.36
2019-02-10T10:49:38.394Z,36.36
2019-02-10T10:50:38.345Z,36.46
2019-02-10T10:51:39.369Z,36.26
2019-02-10T10:52:38.244Z,36.16
2019-02-10T10:53:38.194Z,36.16
2019-02-10T10:54:42.797Z,36.16
2019-02-10T10:55:38.095Z,36.36
2019-02-10T10:56:38.045Z,36.26
2019-02-10T10:57:37.995Z,36.36
2019-02-10T10:58:37.946Z,36.46
2019-02-10T10:59:37.945Z,36.36
2019-02-10T11:00:37.846Z,36.26
2019-02-10T11:01:37.797Z,36.26
2019-02-10T11:02:37.746Z,36.26
2019-02-10T11:03:37.696Z,36.07
2019-02-10T11:04:37.647Z,36.16
2019-02-10T11:05:37.597Z,36.16
2019-02-10T11:06:37.547Z,36.16
2019-02-10T11:07:37.496Z,36.26
2019-02-10T11:08:37.447Z,36.16
2019-02-10T11:09:37.397Z,36.16
2019-02-10T11:10:37.348Z,36.26
2019-02-10T11:11:37.297Z,36.26
2019-02-10T11:12:37.248Z,36.26
2019-02-10T11:13:37.198Z,36.36
2019-02-10T11:14:37.148Z,36.36
2019-02-10T11:15:37.097Z,36.36
2019-02-10T11:16:37.048Z,36.46
2019-02-10T11:17:37.000Z,36.36
2019-02-10T11:18:36.948Z,36.36
2019-02-10T11:19:36.898Z,36.16
2019-02-10T11:20:36.849Z,36.16
2019-02-10T11:21:36.798Z,36.16
2019-02-10T11:22:36.749Z,36.26
2019-02-10T11:23:36.698Z,36.16
2019-02-10T11:24:36.657Z,36.07
2019-02-10T11:25:36.600Z,36.07
2019-02-10T11:26:36.549Z,36.07
2019-02-10T11:27:36.498Z,36.07
2019-02-10T11:28:36.451Z,36.16
2019-02-10T11:29:36.399Z,36.07
2019-02-10T11:30:36.351Z,36.07
2019-02-10T11:31:36.299Z,36.16
2019-02-10T11:32:36.248Z,36.16
2019-02-10T11:33:36.199Z,36.07
2019-02-10T11:34:36.150Z,36.07
2019-02-10T11:35:36.101Z,36.16
2019-02-10T11:36:36.050Z,36.07
2019-02-10T11:37:36.001Z,36.16
2019-02-10T11:38:36.004Z,36.16
2019-02-10T11:39:43.406Z,36.26
2019-02-10T11:40:35.850Z,36.07
2019-02-10T11:41:35.800Z,36.07
2019-02-10T11:42:35.755Z,36.07
2019-02-10T11:43:35.701Z,36.16
2019-02-10T11:44:35.652Z,36.16
2019-02-10T11:45:35.601Z,36.36
2019-02-10T11:46:35.551Z,36.16
2019-02-10T11:47:35.501Z,36.36
2019-02-10T11:48:35.451Z,36.26
2019-02-10T11:49:35.402Z,36.46
2019-02-10T11:50:35.354Z,36.46
2019-02-10T11:51:35.301Z,36.65
2019-02-10T11:52:35.252Z,36.36
2019-02-10T11:53:35.202Z,36.46
2019-02-10T11:54:35.156Z,36.36
2019-02-10T11:55:35.103Z,36.46
2019-02-10T11:56:35.053Z,36.26
2019-02-10T11:57:35.002Z,36.55
2019-02-10T11:58:34.952Z,36.36
2019-02-10T11:59:34.902Z,36.26
2019-02-10T12:00:34.853Z,36.16
2019-02-10T12:01:34.803Z,36.26
2019-02-10T12:02:38.048Z,36.16
2019-02-10T12:03:34.703Z,36.26
2019-02-10T12:04:34.654Z,36.36
2019-02-10T12:05:34.604Z,36.16
2019-02-10T12:06:34.554Z,36.16
2019-02-10T12:07:34.504Z,36.26
2019-02-10T12:08:35.888Z,36.16
2019-02-10T12:09:34.408Z,36.36
2019-02-10T12:10:34.355Z,36.36
2019-02-10T12:11:34.305Z,36.46
2019-02-10T12:12:34.261Z,36.46
2019-02-10T12:13:34.208Z,36.46
2019-02-10T12:14:34.157Z,36.55
2019-02-10T12:15:34.106Z,36.46
2019-02-10T12:16:34.056Z,36.26
2019-02-10T12:17:34.006Z,36.46
2019-02-10T12:18:33.957Z,36.55
2019-02-10T12:19:33.906Z,36.65
2019-02-10T12:20:33.857Z,36.46
2019-02-10T12:21:33.807Z,36.65
2019-02-10T12:22:33.758Z,36.84
2019-02-10T12:23:33.707Z,36.46
2019-02-10T12:24:33.658Z,36.65
2019-02-10T12:25:33.609Z,36.74
2019-02-10T12:26:33.558Z,36.55
2019-02-10T12:27:33.507Z,36.65
2019-02-10T12:28:33.460Z,36.74
2019-02-10T12:29:33.408Z,36.46
2019-02-10T12:30:33.359Z,36.84
2019-02-10T12:31:33.321Z,36.65
2019-02-10T12:32:33.259Z,36.84
2019-02-10T12:33:33.211Z,36.84
2019-02-10T12:34:33.160Z,36.46
2019-02-10T12:35:33.109Z,36.55
2019-02-10T12:36:33.060Z,36.55
2019-02-10T12:37:33.010Z,36.55
2019-02-10T12:38:32.961Z,36.55
2019-02-10T12:39:32.960Z,36.46
2019-02-10T12:40:32.860Z,36.55
2019-02-10T12:41:32.839Z,36.55
2019-02-10T12:42:32.761Z,36.55
2019-02-10T12:43:32.761Z,36.55
2019-02-10T12:44:32.661Z,36.74
2019-02-10T12:45:32.611Z,36.74
2019-02-10T12:46:32.562Z,36.84
2019-02-10T12:47:32.512Z,36.65
2019-02-10T12:48:32.461Z,36.84
2019-02-10T12:49:32.412Z,36.74
2019-02-10T12:50:32.363Z,36.74
2019-02-10T12:51:32.312Z,36.84